createdAt,value
2019-04-20T00:01:21.530Z,5.10
2019-04-20T00:06:22.876Z,5.60
2019-04-20T00:11:35.391Z,5.17
2019-04-20T00:16:35.789Z,5.07
2019-04-20T00:22:03.035Z,5.23
2019-04-20T00:27:26.082Z,5.97
2019-04-20T00:32:20.965Z,5.03
2019-04-20T00:37:19.283Z,5.07
2019-04-20T00:42:33.029Z,5.40
2019-04-20T00:47:42.906Z,5.03
2019-04-20T00:52:58.313Z,5.60
2019-04-20T00:57:53.037Z,5.27
2019-04-20T01:03:09.818Z,5.47
2019-04-20T01:08:17.023Z,5.43
2019-04-20T01:13:23.872Z,5.80
2019-04-20T01:18:29.335Z,6.17
2019-04-20T01:23:40.489Z,5.90
2019-04-20T01:28:54.210Z,6.20
2019-04-20T01:33:58.464Z,5.83
2019-04-20T01:39:09.163Z,5.50
2019-04-20T01:44:02.695Z,5.57
2019-04-20T01:49:14.810Z,5.87
2019-04-20T01:54:34.058Z,5.63
2019-04-20T01:59:58.084Z,5.53
2019-04-20T02:05:10.283Z,5.87
2019-04-20T02:10:11.480Z,6.13
2019-04-20T02:15:26.138Z,5.63
2019-04-20T02:20:45.062Z,5.37
2019-04-20T02:25:33.958Z,5.87
2019-04-20T02:31:15.961Z,6.13
2019-04-20T02:36:27.608Z,5.60
2019-04-20T02:41:37.080Z,5.77
2019-04-20T02:46:41.403Z,5.70
2019-04-20T02:51:46.863Z,5.40
2019-04-20T03:01:46.238Z,5.73
2019-04-20T03:06:48.698Z,5.83
2019-04-20T03:12:24.964Z,5.10
2019-04-20T03:17:30.050Z,5.87
2019-04-20T03:22:58.430Z,5.67
2019-04-20T03:28:07.022Z,5.20
2019-04-20T03:33:24.428Z,5.40
2019-04-20T03:38:14.475Z,5.70
2019-04-20T03:43:03.896Z,5.87
2019-04-20T03:48:32.259Z,5.97
2019-04-20T03:53:34.451Z,5.60
2019-04-20T03:58:47.345Z,6.50
2019-04-20T04:04:10.917Z,5.93
2019-04-20T04:09:10.091Z,5.83
2019-04-20T04:14:02.995Z,5.67
2019-04-20T04:19:16.141Z,5.80
2019-04-20T04:24:27.173Z,5.87
2019-04-20T04:29:43.046Z,6.13
2019-04-20T04:34:48.904Z,5.90
2019-04-20T04:40:01.053Z,6.00
2019-04-20T04:44:50.494Z,5.70
2019-04-20T04:50:01.076Z,5.87
2019-04-20T04:55:16.219Z,5.77
2019-04-20T05:00:05.652Z,5.33
2019-04-20T05:05:35.851Z,5.03
2019-04-20T05:10:25.450Z,5.90
2019-04-20T05:15:46.179Z,5.07
2019-04-20T05:20:58.945Z,5.77
2019-04-20T05:26:26.943Z,4.87
2019-04-20T05:31:25.598Z,5.77
2019-04-20T05:36:44.659Z,4.93
2019-04-20T05:41:51.913Z,5.80
2019-04-20T05:47:01.328Z,5.27
2019-04-20T05:52:24.466Z,5.23
2019-04-20T05:57:21.305Z,5.07
2019-04-20T06:02:23.162Z,5.07
2019-04-20T06:07:31.191Z,5.07
2019-04-20T06:12:35.740Z,5.63
2019-04-20T06:18:01.312Z,5.83
2019-04-20T06:23:50.877Z,5.43
2019-04-20T06:28:48.910Z,5.30
2019-04-20T06:34:33.358Z,5.80
2019-04-20T06:39:40.126Z,5.10
2019-04-20T06:44:45.803Z,5.40
2019-04-20T06:49:45.350Z,5.47
2019-04-20T06:55:02.799Z,5.10
2019-04-20T07:05:21.119Z,5.30
2019-04-20T07:10:44.521Z,5.65
2019-04-20T07:15:36.563Z,5.57
2019-04-20T07:21:05.563Z,5.22
2019-04-20T07:26:22.353Z,5.47
2019-04-20T07:31:20.502Z,5.53
2019-04-20T07:36:32.388Z,5.37
2019-04-20T07:41:42.948Z,5.30
2019-04-20T07:46:56.367Z,5.10
2019-04-20T07:51:34.993Z,4.67
2019-04-20T07:56:53.710Z,5.28
2019-04-20T08:02:36.597Z,4.87
2019-04-20T08:07:14.598Z,5.45
2019-04-20T08:12:55.903Z,5.30
2019-04-20T08:23:09.795Z,5.33
2019-04-20T08:28:15.394Z,6.00
2019-04-20T08:33:30.874Z,5.33
2019-04-20T08:43:53.887Z,5.70
2019-04-20T08:48:57.725Z,5.67
2019-04-20T08:53:57.047Z,5.72
2019-04-20T08:58:48.414Z,5.70
2019-04-20T09:04:04.941Z,5.45
2019-04-20T09:09:33.066Z,5.58
2019-04-20T09:14:21.458Z,4.90
2019-04-20T09:19:36.809Z,5.55
2019-04-20T09:25:04.177Z,5.25
2019-04-20T09:29:59.438Z,5.50
2019-04-20T09:35:09.547Z,4.97
2019-04-20T09:40:35.261Z,5.45
2019-04-20T09:45:36.849Z,5.83
2019-04-20T09:50:55.575Z,5.00
2019-04-20T09:55:59.246Z,5.25
2019-04-20T10:01:01.792Z,5.58
2019-04-20T10:05:56.052Z,5.08
2019-04-20T10:11:01.540Z,5.00
2019-04-20T10:16:08.003Z,4.95
2019-04-20T10:21:13.757Z,4.83
2019-04-20T10:26:20.549Z,4.40
2019-04-20T10:31:26.508Z,4.80
2019-04-20T10:36:57.539Z,4.60
2019-04-20T10:42:04.297Z,4.35
2019-04-20T10:47:09.664Z,4.80
2019-04-20T10:52:15.878Z,4.90
2019-04-20T10:57:21.604Z,4.00
2019-04-20T11:02:27.752Z,4.25
2019-04-20T11:07:34.602Z,4.10
2019-04-20T11:12:40.150Z,3.92
2019-04-20T11:17:45.798Z,3.90
2019-04-20T11:22:52.574Z,4.25
2019-04-20T11:27:58.552Z,4.25
2019-04-20T11:33:06.356Z,4.20
2019-04-20T11:38:14.293Z,3.67
2019-04-20T11:43:19.785Z,3.83
2019-04-20T11:48:25.505Z,3.70
2019-04-20T11:53:32.281Z,4.12
2019-04-20T11:58:38.713Z,4.55
2019-04-20T12:03:52.960Z,3.92
2019-04-20T12:08:52.592Z,4.08
2019-04-20T12:13:58.687Z,4.35
2019-04-20T12:19:04.393Z,3.80
2019-04-20T12:24:10.133Z,3.80
2019-04-20T12:29:16.199Z,3.95
2019-04-20T12:34:22.298Z,3.90
2019-04-20T12:39:28.972Z,5.62
2019-04-20T12:44:35.480Z,4.12
2019-04-20T12:49:43.119Z,3.83
2019-04-20T12:54:48.619Z,3.95
2019-04-20T12:59:54.127Z,3.67
2019-04-20T13:04:59.600Z,4.60
2019-04-20T13:10:07.274Z,4.47
2019-04-20T13:15:47.159Z,4.30
2019-04-20T13:20:55.924Z,4.30
2019-04-20T13:25:59.548Z,4.25
2019-04-20T13:31:06.060Z,4.00
2019-04-20T13:36:12.445Z,4.10
2019-04-20T13:41:18.359Z,3.65
2019-04-20T13:46:24.917Z,3.80
2019-04-20T13:51:30.827Z,3.77
2019-04-20T13:56:37.646Z,4.00
2019-04-20T14:02:02.551Z,3.80
2019-04-20T14:07:09.383Z,4.00
2019-04-20T14:12:23.245Z,3.72
2019-04-20T14:17:23.305Z,4.10
2019-04-20T14:22:29.349Z,3.65
2019-04-20T14:27:34.951Z,3.70
2019-04-20T14:32:40.959Z,3.80
2019-04-20T14:37:47.769Z,3.60
2019-04-20T14:42:55.180Z,3.22
2019-04-20T14:48:01.562Z,4.10
2019-04-20T14:53:07.824Z,4.28
2019-04-20T14:58:31.558Z,3.62
2019-04-20T15:03:40.304Z,3.52
2019-04-20T15:08:45.491Z,4.10
2019-04-20T15:13:50.933Z,4.03
2019-04-20T15:19:21.240Z,3.85
2019-04-20T15:24:27.381Z,3.35
2019-04-20T15:29:32.701Z,3.60
2019-04-20T15:34:39.175Z,3.70
2019-04-20T15:39:45.290Z,3.60
2019-04-20T15:44:51.720Z,3.42
2019-04-20T15:49:58.094Z,3.50
2019-04-20T15:55:11.789Z,3.58
2019-04-20T16:00:11.294Z,3.67
2019-04-20T16:05:37.574Z,3.50
2019-04-20T16:10:43.334Z,4.05
2019-04-20T16:15:49.733Z,3.80
2019-04-20T16:21:03.520Z,3.15
2019-04-20T16:26:27.119Z,3.33
2019-04-20T16:31:32.811Z,3.20
2019-04-20T16:36:38.844Z,3.30
2019-04-20T16:41:46.359Z,3.60
2019-04-20T16:46:52.180Z,3.12
2019-04-20T16:51:58.894Z,3.12
2019-04-20T16:57:04.714Z,3.27
2019-04-20T17:02:13.322Z,3.33
2019-04-20T17:07:33.378Z,2.98
2019-04-20T17:12:39.952Z,3.30
2019-04-20T17:17:48.327Z,2.70
2019-04-20T17:22:52.587Z,2.40
2019-04-20T17:28:15.598Z,2.50
2019-04-20T17:33:28.379Z,2.80
2019-04-20T17:38:39.334Z,2.17
2019-04-20T17:44:04.144Z,2.27
2019-04-20T17:49:07.792Z,2.17
2019-04-20T17:54:14.292Z,2.40
2019-04-20T17:59:22.266Z,2.60
2019-04-20T18:05:02.585Z,3.13
2019-04-20T18:10:05.702Z,2.00
2019-04-20T18:15:00.703Z,2.50
2019-04-20T18:20:01.282Z,3.10
2019-04-20T18:25:30.028Z,2.50
2019-04-20T18:30:40.175Z,2.20
2019-04-20T18:35:40.448Z,1.80
2019-04-20T18:40:51.431Z,1.80
2019-04-20T18:46:08.066Z,2.37
2019-04-20T18:50:57.461Z,1.83
2019-04-20T18:56:04.405Z,2.27
2019-04-20T19:01:10.821Z,2.03
2019-04-20T19:06:18.023Z,2.33
2019-04-20T19:11:27.142Z,2.50
2019-04-20T19:17:07.869Z,2.37
2019-04-20T19:22:01.870Z,2.47
2019-04-20T19:27:11.875Z,2.50
2019-04-20T19:32:31.979Z,3.70
2019-04-20T19:37:28.666Z,4.90
2019-04-20T19:42:43.487Z,4.47
2019-04-20T19:47:58.300Z,4.10
2019-04-20T19:53:16.511Z,4.17
2019-04-20T19:58:15.282Z,3.97
2019-04-20T20:03:08.178Z,4.43
2019-04-20T20:08:20.909Z,3.57
2019-04-20T20:13:27.707Z,3.50
2019-04-20T20:18:46.535Z,3.53
2019-04-20T20:23:38.367Z,2.77
2019-04-20T20:28:49.471Z,4.10
2019-04-20T20:34:03.364Z,4.80
2019-04-20T20:39:12.793Z,5.77
2019-04-20T20:44:22.707Z,5.33
2019-04-20T20:49:37.163Z,5.40
2019-04-20T20:54:40.456Z,4.30
2019-04-20T20:59:43.022Z,4.00
2019-04-20T21:04:39.899Z,4.00
2019-04-20T21:09:46.101Z,3.77
2019-04-20T21:15:00.493Z,2.93
2019-04-20T21:20:19.132Z,3.37
2019-04-20T21:25:21.191Z,3.27
2019-04-20T21:30:35.000Z,3.17
2019-04-20T21:35:42.957Z,3.20
2019-04-20T21:40:48.270Z,2.50
2019-04-20T21:45:59.420Z,2.73
2019-04-20T21:51:23.335Z,2.47
2019-04-20T21:56:10.508Z,2.50
2019-04-20T22:01:27.312Z,3.03
2019-04-20T22:06:26.683Z,3.10
2019-04-20T22:11:33.778Z,3.03
2019-04-20T22:16:46.024Z,3.00
2019-04-20T22:22:00.899Z,2.90
2019-04-20T22:27:05.328Z,2.70
2019-04-20T22:32:06.262Z,2.90
2019-04-20T22:37:16.773Z,2.40
2019-04-20T22:42:18.288Z,2.60
2019-04-20T22:47:28.832Z,2.63
2019-04-20T22:52:42.718Z,3.30
2019-04-20T22:57:48.776Z,2.77
2019-04-20T23:02:44.885Z,3.00
2019-04-20T23:07:50.594Z,3.03
2019-04-20T23:12:59.501Z,4.30
2019-04-20T23:18:04.186Z,4.27
2019-04-20T23:23:11.032Z,3.97
2019-04-20T23:28:18.951Z,3.77
2019-04-20T23:33:23.475Z,3.60
2019-04-20T23:38:28.818Z,3.37
2019-04-20T23:43:45.249Z,3.23
2019-04-20T23:49:16.986Z,3.17
2019-04-20T23:54:22.065Z,2.73
2019-04-20T23:59:27.781Z,2.77
